Antioch, Illinois
Current Conditions -  °F | °C
As of 12:53 AM on Wednesday 22 Oct 2014 (Local Time) from KENW Reporting Station
Clear Clear  
Wind Chill:   Ceiling: Unl
Heat Index:   Visibility: 10mi
Dew Point:   Wind: 6mph
Humidity: 86%   Direction: 330°NNW
Pressure: 30.27"   Gusts: NA
Location:  42.48°N, 88.1°W
Report Text: KENW 220553Z AUTO 33005KT 10SM CLR 03/01 A3027 RMK AO2 SLP256 T00330011 10061 20011 401110011 55000
Loading
Personal Weather Stations






























Interactive Weather Map New forecast layout! Learn more

10-Day Weather Forecast

Advertisements
Track Severe Weather on mobile